Terminal Aerodrome Forecast
Issued by NWS Shreveport, LA

Home | Current Version | Previous Version | Text Only | Print | Product List | Glossary On
Versions: 1 2 3 4 5 6 7 8 9 10 11 12 13 14 15 16 17 18 19 20 21 22 23 24
875
FTUS44 KSHV 012355
TAFMLU
TAF
KMLU 012355Z 0200/0224 VRB04KT P6SM SCT035 BKN250
     FM020600 VRB04KT P6SM BKN025 BKN040
     FM020900 VRB04KT P6SM VCSH BKN020
     FM021200 VRB03KT 4SM BR VCTS BKN008CB
     FM021500 25004KT 6SM BR VCTS BKN015CB
     FM021800 25005KT P6SM BKN015=

USA.gov is the U.S. government's official web portal to all federal, state and local government web resources and services.